createdAt,value
2023-04-26T00:02:21.940Z,87.45
2023-04-26T00:07:25.445Z,88.36
2023-04-26T00:12:27.795Z,90.08
2023-04-26T00:17:29.800Z,90.27
2023-04-26T00:22:33.130Z,91.10
2023-04-26T00:27:35.185Z,89.93
2023-04-26T00:32:37.213Z,89.84
2023-04-26T00:37:41.527Z,88.02
2023-04-26T00:42:43.469Z,87.21
2023-04-26T00:47:45.577Z,86.26
2023-04-26T00:52:49.801Z,87.21
2023-04-26T00:57:52.087Z,85.77
2023-04-26T01:02:54.232Z,85.71
2023-04-26T01:07:59.731Z,83.94
2023-04-26T01:13:03.431Z,82.79
2023-04-26T01:18:05.954Z,83.94
2023-04-26T01:23:09.286Z,82.03
2023-04-26T01:28:11.497Z,81.47
2023-04-26T01:33:15.399Z,81.88
2023-04-26T01:38:20.074Z,81.24
2023-04-26T01:43:22.995Z,80.51
2023-04-26T01:48:25.045Z,80.89
2023-04-26T01:53:28.321Z,81.12
2023-04-26T01:58:30.395Z,80.09
2023-04-26T02:03:32.378Z,78.75
2023-04-26T02:08:36.079Z,78.72
2023-04-26T02:13:38.195Z,78.31
2023-04-26T02:18:41.513Z,78.92
2023-04-26T02:23:44.925Z,79.92
2023-04-26T02:28:46.868Z,79.86
2023-04-26T02:33:48.789Z,79.39
2023-04-26T02:38:52.694Z,79.89
2023-04-26T02:43:54.832Z,80.50
2023-04-26T02:48:57.057Z,79.98
2023-04-26T02:54:00.453Z,81.05
2023-04-26T02:59:02.405Z,81.40
2023-04-26T03:04:05.011Z,81.72
2023-04-26T03:09:08.753Z,80.73
2023-04-26T03:14:10.695Z,81.01
2023-04-26T03:19:12.631Z,80.53
2023-04-26T03:24:15.924Z,82.59
2023-04-26T03:29:17.872Z,82.57
2023-04-26T03:34:19.852Z,83.15
2023-04-26T03:39:23.160Z,84.45
2023-04-26T03:44:25.115Z,84.13
2023-04-26T03:49:27.058Z,84.69
2023-04-26T03:54:30.306Z,82.74
2023-04-26T03:59:32.820Z,82.13
2023-04-26T04:04:34.963Z,81.72
2023-04-26T04:09:38.319Z,81.38
2023-04-26T04:14:40.348Z,81.08
2023-04-26T04:19:42.292Z,79.85
2023-04-26T04:24:47.368Z,79.83
2023-04-26T04:29:49.336Z,78.10
2023-04-26T04:34:53.829Z,78.89
2023-04-26T04:39:57.359Z,77.69
2023-04-26T04:44:59.706Z,79.41
2023-04-26T04:50:01.959Z,80.17
2023-04-26T04:55:06.286Z,79.51
2023-04-26T05:00:10.509Z,79.19
2023-04-26T05:05:12.799Z,79.22
2023-04-26T05:10:16.233Z,78.84
2023-04-26T05:15:18.322Z,76.28
2023-04-26T05:20:20.593Z,75.40
2023-04-26T05:25:23.916Z,75.34
2023-04-26T05:30:26.401Z,73.72
2023-04-26T05:35:28.885Z,74.01
2023-04-26T05:40:32.375Z,74.21
2023-04-26T05:45:34.404Z,75.64
2023-04-26T05:50:37.274Z,75.28
2023-04-26T05:55:42.624Z,74.03
2023-04-26T06:00:44.685Z,72.00
2023-04-26T06:05:46.793Z,71.47
2023-04-26T06:10:50.246Z,70.30
2023-04-26T06:15:53.388Z,71.96
2023-04-26T06:20:55.362Z,67.23
2023-04-26T06:25:58.623Z,66.33
2023-04-26T06:31:00.634Z,66.51
2023-04-26T06:36:02.786Z,66.82
2023-04-26T06:41:06.237Z,65.68
2023-04-26T06:46:08.232Z,66.72
2023-04-26T06:51:10.271Z,63.96
2023-04-26T06:56:13.570Z,62.69
2023-04-26T07:01:15.682Z,64.41
2023-04-26T07:06:17.689Z,62.80
2023-04-26T07:11:22.835Z,64.26
2023-04-26T07:16:27.455Z,64.68
2023-04-26T07:21:29.532Z,66.21
2023-04-26T07:26:32.970Z,65.67
2023-04-26T07:31:35.836Z,64.50
2023-04-26T07:36:37.972Z,63.31
2023-04-26T07:41:43.296Z,64.26
2023-04-26T07:46:46.058Z,62.14
2023-04-26T07:51:51.100Z,61.79
2023-04-26T07:56:55.437Z,61.19
2023-04-26T08:01:57.659Z,60.86
2023-04-26T08:07:01.570Z,61.45
2023-04-26T08:12:06.338Z,60.60
2023-04-26T08:17:12.153Z,61.87
2023-04-26T08:22:14.175Z,65.05
2023-04-26T08:27:19.058Z,69.97
2023-04-26T08:32:21.391Z,69.50
2023-04-26T08:37:23.430Z,66.88
2023-04-26T08:42:28.316Z,63.20
2023-04-26T08:47:39.862Z,59.79
2023-04-26T08:52:42.934Z,61.56
2023-04-26T08:57:48.559Z,61.51
2023-04-26T09:02:53.548Z,60.97
2023-04-26T09:07:57.524Z,60.10
2023-04-26T09:13:01.004Z,59.75
2023-04-26T09:18:19.386Z,60.13
2023-04-26T09:23:21.540Z,63.44
2023-04-26T09:28:25.817Z,66.00
2023-04-26T09:33:27.754Z,62.15
2023-04-26T09:38:29.908Z,58.35
2023-04-26T09:43:37.541Z,58.13
2023-04-26T09:48:39.529Z,57.24
2023-04-26T09:53:46.477Z,56.83
2023-04-26T09:59:01.236Z,51.52
2023-04-26T10:04:04.674Z,53.19
2023-04-26T10:09:09.188Z,53.93
2023-04-26T10:14:12.553Z,58.18
2023-04-26T10:19:14.484Z,59.83
2023-04-26T10:24:16.689Z,56.26
2023-04-26T10:29:20.954Z,55.79
2023-04-26T10:34:23.017Z,52.61
2023-04-26T10:39:28.054Z,48.36
2023-04-26T10:44:42.218Z,50.24
2023-04-26T10:49:48.559Z,50.68
2023-04-26T10:54:55.792Z,53.01
2023-04-26T11:00:20.833Z,51.59
2023-04-26T11:05:44.187Z,48.63
2023-04-26T11:10:52.025Z,51.55
2023-04-26T11:16:00.299Z,45.11
2023-04-26T11:21:03.029Z,42.07
2023-04-26T11:26:06.577Z,43.48
2023-04-26T11:31:09.885Z,42.58
2023-04-26T11:36:11.917Z,43.97
2023-04-26T11:41:14.045Z,42.56
2023-04-26T11:46:21.368Z,44.76
2023-04-26T11:51:24.006Z,42.72
2023-04-26T11:56:26.002Z,42.57
2023-04-26T12:01:30.075Z,45.85
2023-04-26T12:06:41.669Z,46.66
2023-04-26T12:11:48.484Z,48.12
2023-04-26T12:16:53.053Z,48.61
2023-04-26T12:21:55.920Z,43.27
2023-04-26T12:27:00.199Z,42.87
2023-04-26T12:32:04.640Z,43.73
2023-04-26T12:37:06.830Z,43.67
2023-04-26T12:42:08.801Z,39.57
2023-04-26T12:47:12.107Z,40.97
2023-04-26T12:52:14.214Z,43.19
2023-04-26T12:57:16.392Z,43.03
2023-04-26T13:02:19.873Z,43.08
2023-04-26T13:07:22.241Z,43.53
2023-04-26T13:12:24.488Z,45.57
2023-04-26T13:17:28.232Z,45.38
2023-04-26T13:22:30.255Z,44.89
2023-04-26T13:27:32.289Z,45.07
2023-04-26T13:32:36.005Z,45.65
2023-04-26T13:37:38.240Z,42.94
2023-04-26T13:42:41.777Z,43.14
2023-04-26T13:47:45.130Z,45.31
2023-04-26T13:52:48.494Z,45.85
2023-04-26T13:57:50.492Z,45.32
2023-04-26T14:02:54.345Z,43.28
2023-04-26T14:07:57.183Z,42.13
2023-04-26T14:12:59.143Z,43.97
2023-04-26T14:18:02.470Z,42.56
2023-04-26T14:23:04.624Z,42.22
2023-04-26T14:28:08.264Z,44.87
2023-04-26T14:33:11.601Z,42.92
2023-04-26T14:38:13.879Z,44.98
2023-04-26T14:43:16.156Z,44.96
2023-04-26T14:48:19.666Z,46.19
2023-04-26T14:53:21.809Z,45.74
2023-04-26T14:58:24.438Z,45.04
2023-04-26T15:03:28.233Z,43.95
2023-04-26T15:08:30.400Z,44.78
2023-04-26T15:13:32.406Z,44.04
2023-04-26T15:18:35.751Z,44.65
2023-04-26T15:23:37.999Z,46.69
2023-04-26T15:28:40.722Z,45.11
2023-04-26T15:33:44.302Z,44.78
2023-04-26T15:38:48.416Z,46.21
2023-04-26T15:43:54.869Z,47.09
2023-04-26T15:48:58.197Z,46.06
2023-04-26T15:54:00.348Z,44.93
2023-04-26T15:59:03.001Z,45.26
2023-04-26T16:04:06.843Z,45.77
2023-04-26T16:09:23.862Z,46.41
2023-04-26T16:14:27.113Z,47.89
2023-04-26T16:19:30.555Z,48.50
2023-04-26T16:24:32.402Z,48.24
2023-04-26T16:29:34.345Z,48.02
2023-04-26T16:34:37.656Z,46.28
2023-04-26T16:39:39.628Z,46.97
2023-04-26T16:44:41.967Z,46.84
2023-04-26T16:49:45.810Z,46.75
2023-04-26T16:54:47.814Z,48.28
2023-04-26T16:59:49.928Z,49.25
2023-04-26T17:04:53.535Z,49.80
2023-04-26T17:09:55.896Z,49.31
2023-04-26T17:14:57.876Z,49.82
2023-04-26T17:20:01.201Z,50.75
2023-04-26T17:25:04.880Z,51.38
2023-04-26T17:30:08.326Z,50.63
2023-04-26T17:35:11.777Z,52.40
2023-04-26T17:40:13.626Z,53.58
2023-04-26T17:45:15.733Z,54.76
2023-04-26T17:50:21.140Z,56.75
2023-04-26T17:55:23.264Z,55.90
2023-04-26T18:00:25.551Z,56.96
2023-04-26T18:05:29.277Z,58.21
2023-04-26T18:10:31.792Z,58.22
2023-04-26T18:15:33.817Z,58.90
2023-04-26T18:20:37.465Z,59.96
2023-04-26T18:25:39.534Z,59.28
2023-04-26T18:30:41.702Z,61.83
2023-04-26T18:35:45.029Z,62.57
2023-04-26T18:40:50.815Z,63.63
2023-04-26T18:45:53.033Z,67.87
2023-04-26T18:50:56.847Z,73.85
2023-04-26T18:55:58.999Z,75.40
2023-04-26T19:01:01.076Z,76.59
2023-04-26T19:06:09.202Z,78.57
2023-04-26T19:11:12.314Z,80.69
2023-04-26T19:16:14.331Z,80.36
2023-04-26T19:21:17.743Z,80.24
2023-04-26T19:26:19.710Z,80.08
2023-04-26T19:31:21.739Z,80.22
2023-04-26T19:36:25.420Z,80.05
2023-04-26T19:41:27.409Z,80.95
2023-04-26T19:46:29.412Z,80.88
2023-04-26T19:51:32.988Z,80.49
2023-04-26T19:56:34.962Z,81.59
2023-04-26T20:01:37.036Z,82.25
2023-04-26T20:06:40.484Z,83.17
2023-04-26T20:11:42.520Z,83.84
2023-04-26T20:16:44.606Z,84.50
2023-04-26T20:21:47.964Z,85.01
2023-04-26T20:26:50.063Z,85.33
2023-04-26T20:31:52.367Z,85.34
2023-04-26T20:36:55.931Z,85.42
2023-04-26T20:41:57.860Z,86.18
2023-04-26T20:46:59.890Z,86.88
2023-04-26T20:52:03.492Z,87.13
2023-04-26T20:57:05.800Z,86.90
2023-04-26T21:02:07.965Z,87.59
2023-04-26T21:07:11.350Z,88.44
2023-04-26T21:12:13.332Z,89.06
2023-04-26T21:17:15.552Z,88.84
2023-04-26T21:22:18.865Z,89.30
2023-04-26T21:27:20.876Z,89.51
2023-04-26T21:32:22.839Z,89.27
2023-04-26T21:37:26.213Z,89.36
2023-04-26T21:42:28.161Z,88.75
2023-04-26T21:47:30.436Z,89.04
2023-04-26T21:52:33.825Z,89.20
2023-04-26T21:57:36.040Z,90.20
2023-04-26T22:02:39.008Z,90.36
2023-04-26T22:07:42.507Z,90.88
2023-04-26T22:12:44.493Z,90.19
2023-04-26T22:17:46.517Z,90.16
2023-04-26T22:22:49.985Z,90.71
2023-04-26T22:27:52.176Z,90.39
2023-04-26T22:32:57.201Z,90.73
2023-04-26T22:38:00.638Z,91.38
2023-04-26T22:43:02.818Z,91.33
2023-04-26T22:48:04.881Z,91.39
2023-04-26T22:53:08.288Z,90.67
2023-04-26T22:58:11.319Z,91.61
2023-04-26T23:03:13.453Z,91.04
2023-04-26T23:08:17.004Z,91.10
2023-04-26T23:13:19.445Z,90.99
2023-04-26T23:18:21.711Z,91.16
2023-04-26T23:23:25.049Z,91.98
2023-04-26T23:28:26.995Z,91.97
2023-04-26T23:33:28.952Z,92.00
2023-04-26T23:38:32.233Z,91.84
2023-04-26T23:43:34.281Z,92.06
2023-04-26T23:48:36.516Z,92.40
2023-04-26T23:53:39.836Z,92.28
2023-04-26T23:58:41.872Z,92.71
